Time;durP1;ratioP1;P1;durP2;ratioP2;P2;SDS_P1;SDS_P2;PMS_P1;PMS_P2;Temp;Humidity;BMP_temperature;BMP_pressure;BME280_temperature;BME280_humidity;BME280_pressure;Samples;Min_cycle;Max_cycle;Signal;HPM_P1;HPM_P2
2021/11/15 00:01:46;;;;;;;1.58;1.10;;;;;;;;;;5037409;28;20827;-53
2021/11/15 00:04:15;;;;;;;7.93;3.38;;;;;;;;;;5036688;28;20021;-53
2021/11/15 00:06:40;;;;;;;4.90;2.88;;;;;;;;;;5043510;28;20016;-53
2021/11/15 00:09:07;;;;;;;4.53;1.90;;;;;;;;;;5037501;28;20013;-47
2021/11/15 00:11:32;;;;;;;8.00;3.40;;;;;;;;;;5037834;28;20033;-50
2021/11/15 00:13:58;;;;;;;6.32;5.03;;;;;;;;;;5038288;28;20017;-47
2021/11/15 00:16:23;;;;;;;6.35;5.38;;;;;;;;;;5038296;28;20048;-48
2021/11/15 00:18:48;;;;;;;7.13;2.85;;;;;;;;;;5035418;28;20116;-49
2021/11/15 00:21:14;;;;;;;5.20;1.73;;;;;;;;;;5035641;28;20488;-51
2021/11/15 00:23:39;;;;;;;3.00;1.30;;;;;;;;;;5040758;28;20029;-54
2021/11/15 00:26:05;;;;;;;3.90;1.33;;;;;;;;;;5035247;28;20033;-48
2021/11/15 00:28:30;;;;;;;7.88;2.55;;;;;;;;;;5038985;28;20025;-51
2021/11/15 00:30:55;;;;;;;13.35;2.95;;;;;;;;;;5037055;28;20029;-46
2021/11/15 00:33:20;;;;;;;3.78;1.98;;;;;;;;;;5034250;28;20055;-48
2021/11/15 00:35:46;;;;;;;3.17;0.73;;;;;;;;;;5037016;28;20237;-52
2021/11/15 00:38:11;;;;;;;4.05;1.55;;;;;;;;;;5033188;28;20101;-54
2021/11/15 00:40:36;;;;;;;4.55;1.35;;;;;;;;;;5035992;28;20025;-46
2021/11/15 00:43:02;;;;;;;4.10;1.55;;;;;;;;;;5038060;28;20068;-53
2021/11/15 00:45:27;;;;;;;3.88;2.35;;;;;;;;;;5036063;28;20534;-50
2021/11/15 00:47:52;;;;;;;6.70;2.75;;;;;;;;;;5034724;28;20029;-52
2021/11/15 00:50:20;;;;;;;4.50;3.83;;;;;;;;;;5038911;28;20095;-52
2021/11/15 00:52:46;;;;;;;10.13;3.78;;;;;;;;;;5039328;28;20126;-49
2021/11/15 00:55:12;;;;;;;2.47;2.17;;;;;;;;;;5038253;28;20171;-48
2021/11/15 00:57:37;;;;;;;10.43;2.40;;;;;;;;;;5033603;28;20525;-49
2021/11/15 01:00:04;;;;;;;8.50;4.38;;;;;;;;;;5036695;28;20016;-48
2021/11/15 01:02:29;;;;;;;6.93;3.13;;;;;;;;;;5034827;28;20458;-51
2021/11/15 01:04:55;;;;;;;6.47;2.70;;;;;;;;;;5036216;28;20021;-47
2021/11/15 01:07:20;;;;;;;4.43;3.00;;;;;;;;;;5038358;28;20063;-48
2021/11/15 01:09:45;;;;;;;4.85;3.35;;;;;;;;;;5038200;28;20477;-49
2021/11/15 01:12:11;;;;;;;6.53;2.47;;;;;;;;;;5037308;28;20049;-50
2021/11/15 01:14:36;;;;;;;2.85;1.60;;;;;;;;;;5035027;28;20437;-51
2021/11/15 01:17:03;;;;;;;3.72;1.75;;;;;;;;;;5039673;28;20022;-51
2021/11/15 01:19:28;;;;;;;4.32;2.50;;;;;;;;;;5034238;28;20118;-51
2021/11/15 01:21:53;;;;;;;1.98;1.15;;;;;;;;;;5038345;28;20473;-45
2021/11/15 01:24:19;;;;;;;7.70;4.88;;;;;;;;;;5037691;28;20087;-44
2021/11/15 01:26:44;;;;;;;13.38;6.60;;;;;;;;;;5034028;28;20033;-48
2021/11/15 01:29:11;;;;;;;6.90;4.40;;;;;;;;;;5037133;28;20031;-46
2021/11/15 01:31:38;;;;;;;8.48;2.80;;;;;;;;;;5036229;28;20021;-45
2021/11/15 01:34:03;;;;;;;3.50;1.92;;;;;;;;;;5036736;28;20500;-45
2021/11/15 01:36:29;;;;;;;3.10;1.27;;;;;;;;;;5035539;28;20021;-47
2021/11/15 01:38:54;;;;;;;3.45;1.27;;;;;;;;;;5038770;28;20093;-49
2021/11/15 01:41:20;;;;;;;4.70;2.10;;;;;;;;;;5036481;28;20032;-44
2021/11/15 01:43:46;;;;;;;8.20;2.63;;;;;;;;;;5035244;28;20040;-49
2021/11/15 01:46:11;;;;;;;11.18;2.05;;;;;;;;;;5038441;28;20504;-48
2021/11/15 01:48:37;;;;;;;4.57;2.35;;;;;;;;;;5031085;28;20535;-46
2021/11/15 01:51:02;;;;;;;2.67;1.95;;;;;;;;;;5034085;28;20033;-48
2021/11/15 01:53:27;;;;;;;4.72;1.90;;;;;;;;;;5033116;28;20053;-45
2021/11/15 01:55:53;;;;;;;6.88;2.45;;;;;;;;;;5036902;28;20440;-47
2021/11/15 01:58:18;;;;;;;12.48;3.38;;;;;;;;;;5037194;28;20024;-46
2021/11/15 02:00:48;;;;;;;3.75;1.50;;;;;;;;;;5035167;28;20087;-51
2021/11/15 02:03:14;;;;;;;2.72;0.88;;;;;;;;;;5036937;28;20096;-53
2021/11/15 02:05:40;;;;;;;3.60;1.48;;;;;;;;;;5040753;28;20073;-55
2021/11/15 02:08:06;;;;;;;10.13;1.73;;;;;;;;;;5034517;28;20354;-53
2021/11/15 02:10:31;;;;;;;4.25;0.90;;;;;;;;;;5034238;28;20113;-52
2021/11/15 02:12:57;;;;;;;3.58;1.08;;;;;;;;;;5035663;28;20094;-55
2021/11/15 02:15:23;;;;;;;7.00;1.52;;;;;;;;;;5036174;28;20052;-53
2021/11/15 02:17:48;;;;;;;4.75;1.60;;;;;;;;;;5035078;28;20075;-52
2021/11/15 02:20:20;;;;;;;3.50;1.98;;;;;;;;;;5035129;28;20022;-54
2021/11/15 02:22:46;;;;;;;10.85;2.45;;;;;;;;;;5030703;28;20024;-50
2021/11/15 02:25:12;;;;;;;6.28;1.30;;;;;;;;;;5032994;28;20527;-52
2021/11/15 02:27:38;;;;;;;3.20;1.25;;;;;;;;;;5036826;28;20034;-53
2021/11/15 02:30:04;;;;;;;2.15;0.98;;;;;;;;;;5035733;28;20492;-52
2021/11/15 02:32:31;;;;;;;2.97;1.67;;;;;;;;;;5038110;28;20024;-53
2021/11/15 02:34:57;;;;;;;8.65;1.23;;;;;;;;;;5034890;28;20052;-47
2021/11/15 02:37:25;;;;;;;4.80;1.67;;;;;;;;;;5033913;28;20018;-46
2021/11/15 02:39:51;;;;;;;1.52;0.85;;;;;;;;;;5032851;28;20040;-46
2021/11/15 02:42:16;;;;;;;3.30;1.10;;;;;;;;;;5034726;28;20025;-46
2021/11/15 02:44:42;;;;;;;2.40;1.35;;;;;;;;;;5034933;28;20473;-47
2021/11/15 02:47:10;;;;;;;2.47;0.50;;;;;;;;;;5032842;28;20017;-51
2021/11/15 02:49:35;;;;;;;3.05;0.93;;;;;;;;;;5036404;28;20120;-44
2021/11/15 02:52:03;;;;;;;1.10;0.70;;;;;;;;;;5034980;28;20508;-49
2021/11/15 02:54:28;;;;;;;1.50;0.60;;;;;;;;;;5037461;28;20103;-50
2021/11/15 02:56:55;;;;;;;2.35;1.23;;;;;;;;;;5067607;28;20059;-45
2021/11/15 02:59:20;;;;;;;0.68;0.32;;;;;;;;;;5037403;28;20700;-50
2021/11/15 03:01:46;;;;;;;2.17;0.93;;;;;;;;;;5039306;28;20469;-48
2021/11/15 03:04:12;;;;;;;4.38;1.17;;;;;;;;;;5030037;28;20044;-50
2021/11/15 03:06:37;;;;;;;3.92;0.77;;;;;;;;;;5037307;28;20409;-54
2021/11/15 03:09:02;;;;;;;0.47;0.17;;;;;;;;;;5034759;28;20455;-49
2021/11/15 03:11:30;;;;;;;0.85;0.47;;;;;;;;;;5033391;28;20033;-51
2021/11/15 03:13:55;;;;;;;0.77;0.30;;;;;;;;;;5040037;28;20044;-48
2021/11/15 03:16:21;;;;;;;1.33;0.73;;;;;;;;;;5032609;28;20090;-50
2021/11/15 03:18:46;;;;;;;2.80;0.28;;;;;;;;;;5034196;28;20020;-52
2021/11/15 03:21:17;;;;;;;1.98;0.80;;;;;;;;;;5032820;28;20018;-48
2021/11/15 03:23:43;;;;;;;2.22;0.85;;;;;;;;;;5035071;28;20033;-53
2021/11/15 03:26:09;;;;;;;2.28;1.05;;;;;;;;;;5036134;28;20060;-55
2021/11/15 03:28:36;;;;;;;4.38;1.15;;;;;;;;;;5038733;28;20704;-47
2021/11/15 03:31:04;;;;;;;1.70;0.38;;;;;;;;;;5033447;28;20412;-48
2021/11/15 03:33:34;;;;;;;2.45;1.45;;;;;;;;;;5036067;28;20422;-52
2021/11/15 03:35:59;;;;;;;1.80;0.73;;;;;;;;;;5036059;28;20017;-51
2021/11/15 03:38:25;;;;;;;1.98;0.80;;;;;;;;;;5034792;28;20032;-48
2021/11/15 03:40:51;;;;;;;1.45;0.25;;;;;;;;;;5033738;28;20536;-53
2021/11/15 03:43:16;;;;;;;0.85;0.63;;;;;;;;;;5035459;28;20441;-47
2021/11/15 03:45:42;;;;;;;2.22;0.80;;;;;;;;;;5030454;28;20112;-46
2021/11/15 03:48:08;;;;;;;1.10;0.30;;;;;;;;;;5037003;28;20059;-44
2021/11/15 03:50:34;;;;;;;2.45;0.70;;;;;;;;;;5032098;28;20045;-49
2021/11/15 03:53:00;;;;;;;2.97;0.80;;;;;;;;;;5032957;28;20026;-48
2021/11/15 03:55:26;;;;;;;3.30;0.98;;;;;;;;;;5034836;28;20489;-50
2021/11/15 03:57:52;;;;;;;9.00;1.13;;;;;;;;;;5034533;28;20025;-49
2021/11/15 04:00:19;;;;;;;1.17;0.47;;;;;;;;;;5033579;28;20519;-50
2021/11/15 04:02:49;;;;;;;1.02;0.35;;;;;;;;;;5035993;28;20051;-52
2021/11/15 04:05:21;;;;;;;2.20;1.15;;;;;;;;;;5035585;28;20033;-49
2021/11/15 04:07:49;;;;;;;1.27;0.60;;;;;;;;;;5034148;28;20025;-53
2021/11/15 04:10:15;;;;;;;1.08;0.30;;;;;;;;;;5033786;28;20104;-53
2021/11/15 04:12:40;;;;;;;1.60;1.05;;;;;;;;;;5033951;28;20112;-51
2021/11/15 04:15:08;;;;;;;1.42;0.70;;;;;;;;;;5033211;28;20030;-48
2021/11/15 04:17:34;;;;;;;1.65;0.43;;;;;;;;;;5034650;28;20104;-52
2021/11/15 04:19:59;;;;;;;4.30;0.30;;;;;;;;;;5033350;28;20029;-52
2021/11/15 04:22:26;;;;;;;6.80;1.65;;;;;;;;;;5031316;28;20075;-50
2021/11/15 04:24:51;;;;;;;2.17;0.60;;;;;;;;;;5037723;28;20397;-52
2021/11/15 04:27:16;;;;;;;1.58;0.38;;;;;;;;;;5036432;28;20541;-53
2021/11/15 04:29:42;;;;;;;4.78;1.98;;;;;;;;;;5041171;28;20099;-51
2021/11/15 04:32:08;;;;;;;3.00;0.95;;;;;;;;;;5035651;28;20485;-53
2021/11/15 04:34:34;;;;;;;11.77;1.20;;;;;;;;;;5038979;28;20116;-49
2021/11/15 04:36:59;;;;;;;11.10;1.60;;;;;;;;;;5037487;28;20078;-52
2021/11/15 04:39:24;;;;;;;1.75;0.60;;;;;;;;;;5035810;28;20029;-51
2021/11/15 04:41:50;;;;;;;1.10;0.80;;;;;;;;;;5039243;28;20016;-51
2021/11/15 04:44:15;;;;;;;8.55;1.25;;;;;;;;;;5034275;28;20075;-46
2021/11/15 04:46:40;;;;;;;3.17;0.85;;;;;;;;;;5038069;28;20021;-52
2021/11/15 04:49:06;;;;;;;1.27;0.30;;;;;;;;;;5041714;28;20017;-52
2021/11/15 04:51:31;;;;;;;5.22;0.60;;;;;;;;;;5041612;28;20056;-52
2021/11/15 04:53:57;;;;;;;0.43;0.40;;;;;;;;;;5039487;28;20087;-50
2021/11/15 04:56:22;;;;;;;3.10;0.77;;;;;;;;;;5035887;28;20064;-48
2021/11/15 04:58:49;;;;;;;2.45;1.23;;;;;;;;;;5038245;28;20017;-49
2021/11/15 05:01:14;;;;;;;1.05;0.40;;;;;;;;;;5038664;28;20021;-47
2021/11/15 05:03:39;;;;;;;0.82;0.40;;;;;;;;;;5039730;28;20025;-49
2021/11/15 05:06:05;;;;;;;1.52;0.65;;;;;;;;;;5036919;28;20032;-47
2021/11/15 05:08:30;;;;;;;3.05;0.25;;;;;;;;;;5038782;28;20021;-51
2021/11/15 05:10:56;;;;;;;2.05;0.57;;;;;;;;;;5040597;28;20035;-49
2021/11/15 05:13:21;;;;;;;4.47;1.20;;;;;;;;;;5041961;28;20052;-52
2021/11/15 05:15:46;;;;;;;0.63;0.30;;;;;;;;;;5041299;28;20048;-52
2021/11/15 05:18:12;;;;;;;0.55;0.30;;;;;;;;;;5033009;28;20496;-50
2021/11/15 05:20:37;;;;;;;1.88;0.30;;;;;;;;;;5040050;28;20178;-47
2021/11/15 05:23:03;;;;;;;1.05;0.45;;;;;;;;;;5036704;28;20025;-51
2021/11/15 05:25:28;;;;;;;0.82;0.20;;;;;;;;;;5035275;28;20112;-48
2021/11/15 05:27:54;;;;;;;1.20;0.30;;;;;;;;;;5037281;28;20022;-47
2021/11/15 05:30:20;;;;;;;8.30;1.23;;;;;;;;;;5037193;28;20063;-51
2021/11/15 05:32:46;;;;;;;1.35;0.30;;;;;;;;;;5037896;28;20017;-46
2021/11/15 05:35:11;;;;;;;3.55;0.70;;;;;;;;;;5034186;28;20024;-52
2021/11/15 05:37:37;;;;;;;2.90;0.98;;;;;;;;;;5037538;28;20018;-47
2021/11/15 05:40:03;;;;;;;1.90;0.30;;;;;;;;;;5037537;28;20100;-45
2021/11/15 05:42:28;;;;;;;1.17;0.57;;;;;;;;;;5039275;28;20058;-51
2021/11/15 05:44:54;;;;;;;0.88;0.70;;;;;;;;;;5040733;28;20049;-47
2021/11/15 05:47:20;;;;;;;0.15;0.15;;;;;;;;;;5039833;28;20038;-51
2021/11/15 05:49:45;;;;;;;0.28;0.10;;;;;;;;;;5033817;28;20416;-51
2021/11/15 05:52:10;;;;;;;1.55;0.63;;;;;;;;;;5037702;28;20022;-51
2021/11/15 05:54:36;;;;;;;0.80;0.30;;;;;;;;;;5037567;28;20017;-52
2021/11/15 05:57:01;;;;;;;0.40;0.25;;;;;;;;;;5036562;28;20036;-52
2021/11/15 05:59:28;;;;;;;0.80;0.40;;;;;;;;;;5042327;28;20021;-52
2021/11/15 06:01:53;;;;;;;11.30;0.75;;;;;;;;;;5035317;28;20072;-53
2021/11/15 06:04:18;;;;;;;2.92;0.88;;;;;;;;;;5035800;28;20013;-53
2021/11/15 06:06:44;;;;;;;11.80;1.58;;;;;;;;;;5032381;28;20021;-50
2021/11/15 06:09:10;;;;;;;4.35;0.30;;;;;;;;;;5035068;28;20031;-52
2021/11/15 06:11:35;;;;;;;1.23;0.57;;;;;;;;;;5036607;28;20404;-53
2021/11/15 06:14:00;;;;;;;3.08;0.75;;;;;;;;;;5035861;28;20017;-50
2021/11/15 06:16:26;;;;;;;2.42;0.50;;;;;;;;;;5035350;28;20104;-50
2021/11/15 06:18:51;;;;;;;0.93;0.50;;;;;;;;;;5032932;28;20025;-53
2021/11/15 06:21:17;;;;;;;10.13;0.98;;;;;;;;;;5031645;28;20029;-49
2021/11/15 06:23:42;;;;;;;1.08;0.73;;;;;;;;;;5033995;28;20369;-51
2021/11/15 06:26:08;;;;;;;3.80;1.00;;;;;;;;;;5035295;28;20116;-52
2021/11/15 06:28:33;;;;;;;1.75;0.93;;;;;;;;;;5035561;28;20028;-51
2021/11/15 06:30:58;;;;;;;2.90;1.63;;;;;;;;;;5034482;28;20518;-53
2021/11/15 06:33:24;;;;;;;1.80;0.88;;;;;;;;;;5036441;28;20379;-46
2021/11/15 06:35:49;;;;;;;19.98;13.68;;;;;;;;;;5039316;28;20072;-53
2021/11/15 06:38:14;;;;;;;3.47;1.83;;;;;;;;;;5035555;28;20028;-52
2021/11/15 06:40:40;;;;;;;0.65;0.52;;;;;;;;;;5036024;28;20113;-53
2021/11/15 06:43:06;;;;;;;2.53;0.93;;;;;;;;;;5035372;28;20127;-53
2021/11/15 06:45:32;;;;;;;2.28;0.63;;;;;;;;;;5033495;28;20021;-53
2021/11/15 06:47:57;;;;;;;1.00;0.63;;;;;;;;;;5033878;28;20029;-53
2021/11/15 06:50:22;;;;;;;10.45;0.63;;;;;;;;;;5033008;28;20044;-51
2021/11/15 06:52:48;;;;;;;2.60;1.33;;;;;;;;;;5033198;28;20453;-52
2021/11/15 06:55:15;;;;;;;0.75;0.40;;;;;;;;;;5032822;28;20071;-53
2021/11/15 06:57:41;;;;;;;1.27;0.75;;;;;;;;;;5033924;28;20017;-54
2021/11/15 07:00:07;;;;;;;5.40;0.88;;;;;;;;;;5034438;28;20033;-51
2021/11/15 07:02:33;;;;;;;0.63;0.30;;;;;;;;;;5034371;28;20025;-54
2021/11/15 07:04:58;;;;;;;1.77;1.02;;;;;;;;;;5030344;28;20742;-51
2021/11/15 07:07:23;;;;;;;2.53;0.60;;;;;;;;;;5034195;28;20127;-49
2021/11/15 07:09:49;;;;;;;5.40;1.88;;;;;;;;;;5032534;28;20029;-52
2021/11/15 07:12:15;;;;;;;0.70;0.60;;;;;;;;;;5032008;28;20086;-54
2021/11/15 07:14:40;;;;;;;2.03;1.15;;;;;;;;;;5033011;28;20036;-53
2021/11/15 07:17:05;;;;;;;0.65;0.40;;;;;;;;;;5033527;28;20029;-51
2021/11/15 07:19:31;;;;;;;1.27;0.90;;;;;;;;;;5032322;28;20626;-53
2021/11/15 07:21:56;;;;;;;1.67;0.73;;;;;;;;;;5037434;28;20017;-52
2021/11/15 07:24:21;;;;;;;4.18;0.65;;;;;;;;;;5036963;28;20025;-52
2021/11/15 07:26:47;;;;;;;8.90;1.05;;;;;;;;;;5034080;28;20021;-52
2021/11/15 07:29:12;;;;;;;4.35;0.50;;;;;;;;;;5033615;28;20052;-50
2021/11/15 07:31:39;;;;;;;0.32;0.20;;;;;;;;;;5032941;28;20061;-54
2021/11/15 07:34:04;;;;;;;2.90;1.25;;;;;;;;;;5034301;28;20665;-51
2021/11/15 07:36:32;;;;;;;7.03;1.48;;;;;;;;;;5034162;28;20029;-49
2021/11/15 07:38:57;;;;;;;5.28;0.70;;;;;;;;;;5029724;28;20045;-53
2021/11/15 07:41:22;;;;;;;1.23;0.60;;;;;;;;;;5034660;28;20163;-49
2021/11/15 07:43:47;;;;;;;2.92;1.80;;;;;;;;;;5032774;28;20048;-54
2021/11/15 07:46:13;;;;;;;2.10;1.35;;;;;;;;;;5032979;28;20031;-55
2021/11/15 07:48:38;;;;;;;2.17;1.02;;;;;;;;;;5035937;28;20072;-53
2021/11/15 07:51:04;;;;;;;1.35;0.55;;;;;;;;;;5035425;28;20246;-54
2021/11/15 07:53:30;;;;;;;3.13;1.27;;;;;;;;;;5034477;28;20591;-54
2021/11/15 07:55:55;;;;;;;1.02;0.50;;;;;;;;;;5033695;28;20036;-55
2021/11/15 07:58:21;;;;;;;3.88;1.25;;;;;;;;;;5034751;28;20021;-50
2021/11/15 08:00:47;;;;;;;4.15;1.85;;;;;;;;;;5039048;28;20025;-51
2021/11/15 08:03:13;;;;;;;6.78;3.13;;;;;;;;;;5038493;28;20021;-55
2021/11/15 08:05:38;;;;;;;3.47;1.23;;;;;;;;;;5038061;28;20109;-54
2021/11/15 08:08:03;;;;;;;14.80;2.47;;;;;;;;;;5037301;28;20032;-54
2021/11/15 08:10:29;;;;;;;6.03;1.85;;;;;;;;;;5036701;28;20014;-50
2021/11/15 08:12:56;;;;;;;3.80;1.20;;;;;;;;;;5036007;28;20477;-54
2021/11/15 08:15:22;;;;;;;2.83;1.42;;;;;;;;;;5034774;28;20415;-54
2021/11/15 08:17:49;;;;;;;5.88;2.92;;;;;;;;;;5035047;28;20122;-53
2021/11/15 08:20:35;;;;;;;2.25;1.25;;;;;;;;;;5035504;28;20020;-54
2021/11/15 08:23:02;;;;;;;9.63;2.20;;;;;;;;;;5033438;28;20160;-54
2021/11/15 08:25:36;;;;;;;3.30;1.52;;;;;;;;;;5036975;28;20029;-53
2021/11/15 08:28:01;;;;;;;6.28;2.72;;;;;;;;;;5037117;28;20032;-53
2021/11/15 08:30:26;;;;;;;17.05;2.67;;;;;;;;;;5034729;28;20029;-52
2021/11/15 08:32:53;;;;;;;7.75;1.48;;;;;;;;;;5038328;28;20029;-51
2021/11/15 08:35:19;;;;;;;4.07;2.40;;;;;;;;;;5034466;28;20026;-50
2021/11/15 08:38:11;;;;;;;2.45;1.17;;;;;;;;;;5034469;28;20013;-49
2021/11/15 08:40:36;;;;;;;;;;;;;;;;;;5024693;28;20033;-51
2021/11/15 08:43:01;;;;;;;1.27;0.68;;;;;;;;;;5037186;28;20406;-51
2021/11/15 08:45:27;;;;;;;12.02;2.97;;;;;;;;;;5037770;28;20085;-51
2021/11/15 08:47:52;;;;;;;15.93;3.08;;;;;;;;;;5036104;28;20655;-48
2021/11/15 08:50:17;;;;;;;9.43;2.53;;;;;;;;;;5036603;28;20564;-52
2021/11/15 08:52:43;;;;;;;6.20;1.75;;;;;;;;;;5036149;28;20017;-52
2021/11/15 08:55:08;;;;;;;6.13;2.90;;;;;;;;;;5036276;28;20020;-53
2021/11/15 08:57:33;;;;;;;5.88;1.35;;;;;;;;;;5040151;28;20032;-49
2021/11/15 08:59:58;;;;;;;1.45;1.05;;;;;;;;;;5036275;28;20025;-49
2021/11/15 09:02:24;;;;;;;2.28;1.30;;;;;;;;;;5037381;28;20768;-49
2021/11/15 09:04:49;;;;;;;4.35;0.75;;;;;;;;;;5035421;28;20036;-47
2021/11/15 09:07:14;;;;;;;7.10;2.17;;;;;;;;;;5035397;28;20079;-53
2021/11/15 09:09:40;;;;;;;4.85;2.97;;;;;;;;;;5035661;28;20608;-49
2021/11/15 09:12:08;;;;;;;2.38;1.23;;;;;;;;;;5034385;28;20017;-50
2021/11/15 09:14:34;;;;;;;8.40;2.50;;;;;;;;;;5035539;28;20025;-52
2021/11/15 09:16:59;;;;;;;9.25;2.25;;;;;;;;;;5034773;28;20025;-49
2021/11/15 09:19:25;;;;;;;4.00;0.98;;;;;;;;;;5032370;28;20025;-51
2021/11/15 09:21:51;;;;;;;4.45;1.35;;;;;;;;;;5037062;28;20099;-54
2021/11/15 09:24:16;;;;;;;2.25;1.95;;;;;;;;;;5037719;28;20039;-52
2021/11/15 09:26:43;;;;;;;12.98;3.00;;;;;;;;;;5034911;28;20022;-52
2021/11/15 09:29:08;;;;;;;4.15;1.88;;;;;;;;;;5035402;28;20052;-54
2021/11/15 09:31:34;;;;;;;2.53;0.85;;;;;;;;;;5036405;28;20076;-50
2021/11/15 09:34:00;;;;;;;5.03;2.92;;;;;;;;;;5037323;28;20079;-52
2021/11/15 09:36:25;;;;;;;8.70;2.05;;;;;;;;;;5038125;28;20029;-51
2021/11/15 09:38:52;;;;;;;1.92;0.82;;;;;;;;;;5035401;28;20025;-49
2021/11/15 09:41:17;;;;;;;4.43;2.13;;;;;;;;;;5035595;28;20035;-48
2021/11/15 09:43:42;;;;;;;6.88;2.13;;;;;;;;;;5037355;28;20040;-49
2021/11/15 09:46:13;;;;;;;2.35;1.77;;;;;;;;;;5035709;28;20455;-48
2021/11/15 09:48:40;;;;;;;4.27;1.37;;;;;;;;;;5037305;28;20051;-50
2021/11/15 09:51:06;;;;;;;3.15;1.85;;;;;;;;;;5036283;28;20289;-46
2021/11/15 09:53:32;;;;;;;7.32;2.17;;;;;;;;;;5035134;28;20491;-52
2021/11/15 09:55:58;;;;;;;3.10;1.40;;;;;;;;;;5032609;28;20026;-53
2021/11/15 09:58:24;;;;;;;6.65;2.55;;;;;;;;;;5035995;28;20128;-48
2021/11/15 10:00:50;;;;;;;6.45;2.80;;;;;;;;;;5041553;28;20504;-52
2021/11/15 10:03:16;;;;;;;11.07;2.08;;;;;;;;;;5037153;28;20123;-52
2021/11/15 10:05:43;;;;;;;11.93;3.72;;;;;;;;;;5038489;28;20052;-49
2021/11/15 10:08:12;;;;;;;2.60;1.60;;;;;;;;;;5035281;28;20029;-52
2021/11/15 10:10:40;;;;;;;4.10;1.88;;;;;;;;;;5034941;28;20060;-52
2021/11/15 10:13:24;;;;;;;15.23;3.67;;;;;;;;;;5036364;28;20029;-49
2021/11/15 10:15:49;;;;;;;17.52;3.85;;;;;;;;;;5035853;28;20025;-52
2021/11/15 10:18:19;;;;;;;5.30;3.05;;;;;;;;;;5036302;28;20021;-52
2021/11/15 10:20:48;;;;;;;5.75;2.03;;;;;;;;;;5038490;28;20729;-52
2021/11/15 10:23:35;;;;;;;11.57;2.83;;;;;;;;;;5037388;28;20035;-54
2021/11/15 10:26:06;;;;;;;4.13;2.25;;;;;;;;;;5034468;28;20029;-50
2021/11/15 10:28:32;;;;;;;6.68;2.40;;;;;;;;;;5035951;28;20061;-54
2021/11/15 10:30:58;;;;;;;14.40;4.00;;;;;;;;;;5035451;28;20385;-54
2021/11/15 10:33:37;;;;;;;7.65;2.15;;;;;;;;;;5035643;28;20028;-58
2021/11/15 10:36:03;;;;;;;5.45;2.42;;;;;;;;;;5038138;28;20032;-58
2021/11/15 10:38:50;;;;;;;6.97;2.22;;;;;;;;;;5032691;28;20014;-58
2021/11/15 10:41:17;;;;;;;2.15;1.23;;;;;;;;;;5035475;28;20131;-59
2021/11/15 10:43:43;;;;;;;10.30;1.95;;;;;;;;;;5036901;28;20059;-59
2021/11/15 10:46:08;;;;;;;8.50;2.92;;;;;;;;;;5036512;28;20056;-59
2021/11/15 10:48:47;;;;;;;4.28;1.95;;;;;;;;;;5034471;28;20480;-58
2021/11/15 10:51:15;;;;;;;4.57;1.67;;;;;;;;;;5036444;28;20041;-58
2021/11/15 10:53:54;;;;;;;4.82;0.70;;;;;;;;;;5036445;28;20120;-58
2021/11/15 10:56:28;;;;;;;5.95;2.40;;;;;;;;;;5032158;28;20059;-58
2021/11/15 10:58:54;;;;;;;1.70;0.82;;;;;;;;;;5036600;28;20025;-58
2021/11/15 11:01:21;;;;;;;3.03;1.00;;;;;;;;;;5038849;28;20037;-58
2021/11/15 11:03:46;;;;;;;1.95;0.60;;;;;;;;;;5036663;28;20033;-58
2021/11/15 11:06:15;;;;;;;1.60;0.68;;;;;;;;;;5036957;28;20537;-57
2021/11/15 11:08:42;;;;;;;4.25;1.30;;;;;;;;;;5037119;28;20025;-58
2021/11/15 11:11:12;;;;;;;17.08;2.90;;;;;;;;;;5036455;28;20025;-58
2021/11/15 11:13:40;;;;;;;3.67;1.17;;;;;;;;;;5036618;28;20563;-58
2021/11/15 11:16:05;;;;;;;0.98;0.52;;;;;;;;;;5034233;28;20416;-58
2021/11/15 11:18:46;;;;;;;0.25;0.20;;;;;;;;;;5035122;28;20109;-57
2021/11/15 11:26:37;;;;;;;18.25;11.02;;;;;;;;;;5029910;28;20017;-58
2021/11/15 11:29:03;;;;;;;6.10;3.08;;;;;;;;;;5034377;28;20108;-58
2021/11/15 11:31:30;;;;;;;9.77;2.42;;;;;;;;;;5031084;28;20021;-58
2021/11/15 11:33:56;;;;;;;8.07;1.88;;;;;;;;;;5038035;28;20487;-57
2021/11/15 11:36:21;;;;;;;7.75;2.50;;;;;;;;;;5035792;28;20067;-58
2021/11/15 11:38:47;;;;;;;3.67;2.30;;;;;;;;;;5040789;28;20448;-58
2021/11/15 11:41:12;;;;;;;7.93;1.13;;;;;;;;;;5037069;28;20037;-57
2021/11/15 11:43:38;;;;;;;15.93;1.52;;;;;;;;;;5036644;28;20021;-58
2021/11/15 11:46:04;;;;;;;0.90;0.45;;;;;;;;;;5040433;28;20068;-58
2021/11/15 11:48:29;;;;;;;3.13;0.70;;;;;;;;;;5040727;28;20037;-58
2021/11/15 11:50:55;;;;;;;3.70;1.38;;;;;;;;;;5039090;28;20056;-58
2021/11/15 11:53:22;;;;;;;3.03;1.30;;;;;;;;;;5039584;28;20043;-59
2021/11/15 11:55:48;;;;;;;10.65;2.50;;;;;;;;;;5039713;28;20153;-59
2021/11/15 11:58:19;;;;;;;1.25;0.80;;;;;;;;;;5037294;28;20124;-59
2021/11/15 12:00:48;;;;;;;2.72;1.55;;;;;;;;;;5039113;28;20029;-58
2021/11/15 12:03:14;;;;;;;5.50;1.98;;;;;;;;;;5036552;28;20398;-58
2021/11/15 12:05:40;;;;;;;4.85;1.58;;;;;;;;;;5034638;28;20022;-58
2021/11/15 12:08:08;;;;;;;3.97;1.17;;;;;;;;;;5038525;28;20017;-57
2021/11/15 12:10:46;;;;;;;3.00;1.70;;;;;;;;;;5035631;28;20639;-58
2021/11/15 12:13:13;;;;;;;1.45;0.90;;;;;;;;;;5035498;28;20021;-58
2021/11/15 12:15:42;;;;;;;2.92;1.55;;;;;;;;;;5036117;28;20481;-58
2021/11/15 12:18:13;;;;;;;2.25;1.17;;;;;;;;;;5037362;28;20618;-57
2021/11/15 12:20:39;;;;;;;;;;;;;;;;;;5037323;28;20064;-57
2021/11/15 12:23:11;;;;;;;7.25;1.88;;;;;;;;;;5037797;28;20006;-57
2021/11/15 12:25:39;;;;;;;4.43;2.35;;;;;;;;;;5034449;28;20029;-58
2021/11/15 12:28:05;;;;;;;3.88;1.50;;;;;;;;;;5035478;28;20031;-58
2021/11/15 12:30:35;;;;;;;1.83;1.17;;;;;;;;;;5037005;28;20022;-58
2021/11/15 12:33:20;;;;;;;2.90;1.58;;;;;;;;;;5035894;28;20037;-58
2021/11/15 12:35:56;;;;;;;4.18;2.42;;;;;;;;;;5035383;28;20029;-60
2021/11/15 12:38:40;;;;;;;5.05;2.00;;;;;;;;;;5034719;28;20033;-60
2021/11/15 12:41:14;;;;;;;4.88;0.98;;;;;;;;;;5035981;28;20040;-60
2021/11/15 12:43:41;;;;;;;2.25;0.85;;;;;;;;;;5035501;28;20036;-59
2021/11/15 12:46:09;;;;;;;17.35;1.80;;;;;;;;;;5036677;28;20032;-59
2021/11/15 12:48:36;;;;;;;1.33;0.88;;;;;;;;;;5040382;28;20033;-59
2021/11/15 12:51:18;;;;;;;5.82;1.25;;;;;;;;;;5036076;28;20041;-60
2021/11/15 12:53:45;;;;;;;3.97;1.15;;;;;;;;;;5035692;28;20123;-59
2021/11/15 12:56:15;;;;;;;3.58;1.17;;;;;;;;;;5040241;28;20496;-59
2021/11/15 12:58:58;;;;;;;2.25;1.02;;;;;;;;;;5036667;28;20025;-59
2021/11/15 13:01:24;;;;;;;2.38;1.60;;;;;;;;;;5038711;28;20622;-59
2021/11/15 13:03:53;;;;;;;21.42;3.10;;;;;;;;;;5038651;28;20111;-59
2021/11/15 13:06:19;;;;;;;2.97;0.95;;;;;;;;;;5038050;28;20021;-59
2021/11/15 13:08:45;;;;;;;4.70;1.85;;;;;;;;;;5035949;28;20076;-60
2021/11/15 13:11:11;;;;;;;13.65;3.92;;;;;;;;;;5038737;28;20021;-59
2021/11/15 13:13:36;;;;;;;4.95;1.25;;;;;;;;;;5034592;28;20017;-59
2021/11/15 13:16:02;;;;;;;5.50;1.00;;;;;;;;;;5034868;28;20036;-60
2021/11/15 13:18:27;;;;;;;3.25;1.92;;;;;;;;;;5034184;28;20021;-60
2021/11/15 13:20:52;;;;;;;8.20;4.53;;;;;;;;;;5036315;28;20021;-60
2021/11/15 13:23:19;;;;;;;7.03;3.70;;;;;;;;;;5034687;28;20025;-61
2021/11/15 13:25:44;;;;;;;15.90;4.35;;;;;;;;;;5038305;28;20072;-62
2021/11/15 13:28:10;;;;;;;13.27;4.55;;;;;;;;;;5037383;28;20539;-61
2021/11/15 13:30:35;;;;;;;8.68;3.85;;;;;;;;;;5043887;28;20267;-63
2021/11/15 13:33:02;;;;;;;4.13;2.50;;;;;;;;;;5038296;28;20162;-54
2021/11/15 13:35:27;;;;;;;3.83;1.27;;;;;;;;;;5040100;28;20036;-55
2021/11/15 13:37:58;;;;;;;10.88;3.67;;;;;;;;;;5038565;28;20021;-55
2021/11/15 13:40:23;;;;;;;6.03;2.30;;;;;;;;;;5035404;28;20029;-59
2021/11/15 13:42:49;;;;;;;2.88;1.73;;;;;;;;;;5039074;28;20024;-57
2021/11/15 13:45:14;;;;;;;10.82;1.98;;;;;;;;;;5038426;28;20384;-49
2021/11/15 13:47:39;;;;;;;7.70;2.70;;;;;;;;;;5036430;28;20103;-51
2021/11/15 13:50:05;;;;;;;4.90;3.05;;;;;;;;;;5035460;28;20193;-48
2021/11/15 13:52:30;;;;;;;5.55;2.53;;;;;;;;;;5032830;28;20030;-46
2021/11/15 13:54:56;;;;;;;4.53;2.38;;;;;;;;;;5033376;28;20526;-49
2021/11/15 13:57:28;;;;;;;2.35;2.15;;;;;;;;;;5034636;28;20021;-49
2021/11/15 13:59:53;;;;;;;7.50;2.63;;;;;;;;;;5040236;28;20025;-48
2021/11/15 14:02:19;;;;;;;8.80;4.85;;;;;;;;;;5036241;28;20564;-51
2021/11/15 14:04:44;;;;;;;4.40;1.50;;;;;;;;;;5035359;28;20255;-51
2021/11/15 14:07:10;;;;;;;10.23;2.05;;;;;;;;;;5036684;28;20118;-55
2021/11/15 14:09:36;;;;;;;11.70;2.70;;;;;;;;;;5038259;28;20017;-51
2021/11/15 14:12:01;;;;;;;8.43;2.70;;;;;;;;;;5038747;28;20056;-54
2021/11/15 14:14:26;;;;;;;4.95;2.10;;;;;;;;;;5038402;28;20071;-54
2021/11/15 14:16:52;;;;;;;3.45;1.80;;;;;;;;;;5034862;28;20025;-55
2021/11/15 14:19:17;;;;;;;18.23;14.38;;;;;;;;;;5039674;28;20029;-55
2021/11/15 14:21:43;;;;;;;14.02;10.05;;;;;;;;;;5040859;28;20013;-53
2021/11/15 14:24:08;;;;;;;12.20;3.47;;;;;;;;;;5039811;28;20020;-54
2021/11/15 14:26:34;;;;;;;8.30;2.20;;;;;;;;;;5037788;28;20087;-49
2021/11/15 14:28:59;;;;;;;3.17;2.35;;;;;;;;;;5038645;28;20374;-55
2021/11/15 14:31:24;;;;;;;6.20;2.85;;;;;;;;;;5040018;28;20037;-56
2021/11/15 14:33:49;;;;;;;6.22;2.25;;;;;;;;;;5039314;28;20427;-54
2021/11/15 14:36:15;;;;;;;7.57;3.50;;;;;;;;;;5039323;28;20508;-54
2021/11/15 14:38:40;;;;;;;3.47;1.65;;;;;;;;;;5038164;28;20030;-51
2021/11/15 14:41:05;;;;;;;9.77;3.47;;;;;;;;;;5038887;28;20018;-52
2021/11/15 14:43:31;;;;;;;34.15;30.52;;;;;;;;;;5039122;28;20414;-54